sensor_id;sensor_type;location;lat;lon;timestamp;P1;P2;P0
26185;PMS7003;20067;48.764;9.176;2023-03-01T00:02:20;25.50;24.00;11.50
26185;PMS7003;20067;48.764;9.176;2023-03-01T00:04:46;32.75;27.75;13.50
26185;PMS7003;20067;48.764;9.176;2023-03-01T00:07:12;31.00;25.50;12.50
26185;PMS7003;20067;48.764;9.176;2023-03-01T00:09:38;31.25;25.25;15.50
26185;PMS7003;20067;48.764;9.176;2023-03-01T00:12:05;32.00;25.75;15.50
26185;PMS7003;20067;48.764;9.176;2023-03-01T00:14:30;29.75;26.25;14.00
26185;PMS7003;20067;48.764;9.176;2023-03-01T00:16:56;36.75;27.00;14.00
26185;PMS7003;20067;48.764;9.176;2023-03-01T00:19:22;33.00;26.00;15.00
26185;PMS7003;20067;48.764;9.176;2023-03-01T00:21:48;30.00;28.00;15.75
26185;PMS7003;20067;48.764;9.176;2023-03-01T00:24:14;34.75;24.50;13.50
26185;PMS7003;20067;48.764;9.176;2023-03-01T00:26:40;30.75;24.00;14.50
26185;PMS7003;20067;48.764;9.176;2023-03-01T00:29:06;36.50;28.25;16.00
26185;PMS7003;20067;48.764;9.176;2023-03-01T00:31:32;38.00;30.00;17.00
26185;PMS7003;20067;48.764;9.176;2023-03-01T00:34:00;37.25;32.25;14.50
26185;PMS7003;20067;48.764;9.176;2023-03-01T00:36:29;33.00;27.75;18.25
26185;PMS7003;20067;48.764;9.176;2023-03-01T00:38:56;34.25;27.75;16.50
26185;PMS7003;20067;48.764;9.176;2023-03-01T00:41:23;26.50;26.00;15.00
26185;PMS7003;20067;48.764;9.176;2023-03-01T00:43:49;32.25;28.00;16.50
26185;PMS7003;20067;48.764;9.176;2023-03-01T00:46:16;28.25;23.50;14.50
26185;PMS7003;20067;48.764;9.176;2023-03-01T00:48:43;33.75;26.50;13.50
26185;PMS7003;20067;48.764;9.176;2023-03-01T00:51:11;26.75;24.50;12.50
26185;PMS7003;20067;48.764;9.176;2023-03-01T00:53:37;30.00;26.00;16.50
26185;PMS7003;20067;48.764;9.176;2023-03-01T00:56:04;35.75;26.00;11.50
26185;PMS7003;20067;48.764;9.176;2023-03-01T00:58:31;37.75;30.00;17.00
26185;PMS7003;20067;48.764;9.176;2023-03-01T01:00:57;31.00;28.25;13.00
26185;PMS7003;20067;48.764;9.176;2023-03-01T01:03:23;29.00;23.50;13.00
26185;PMS7003;20067;48.764;9.176;2023-03-01T01:05:50;33.50;24.25;14.25
26185;PMS7003;20067;48.764;9.176;2023-03-01T01:08:19;35.75;28.00;16.00
26185;PMS7003;20067;48.764;9.176;2023-03-01T01:10:45;33.25;26.50;16.00
26185;PMS7003;20067;48.764;9.176;2023-03-01T01:13:12;35.00;29.00;13.50
26185;PMS7003;20067;48.764;9.176;2023-03-01T01:15:38;33.25;28.00;14.00
26185;PMS7003;20067;48.764;9.176;2023-03-01T01:18:04;28.25;26.25;15.00
26185;PMS7003;20067;48.764;9.176;2023-03-01T01:20:31;27.50;23.25;13.25
26185;PMS7003;20067;48.764;9.176;2023-03-01T01:22:57;26.50;23.75;11.75
26185;PMS7003;20067;48.764;9.176;2023-03-01T01:25:22;29.25;24.00;14.00
26185;PMS7003;20067;48.764;9.176;2023-03-01T01:27:50;31.50;23.75;12.75
26185;PMS7003;20067;48.764;9.176;2023-03-01T01:30:16;34.00;27.50;14.75
26185;PMS7003;20067;48.764;9.176;2023-03-01T01:32:42;27.75;25.75;14.00
26185;PMS7003;20067;48.764;9.176;2023-03-01T01:35:07;24.50;22.50;12.75
26185;PMS7003;20067;48.764;9.176;2023-03-01T01:37:33;26.25;20.75;10.25
26185;PMS7003;20067;48.764;9.176;2023-03-01T01:39:59;27.50;26.00;14.75
26185;PMS7003;20067;48.764;9.176;2023-03-01T01:42:28;34.75;28.50;16.00
26185;PMS7003;20067;48.764;9.176;2023-03-01T01:47:54;43.25;28.50;14.00
26185;PMS7003;20067;48.764;9.176;2023-03-01T01:50:23;33.00;28.50;14.00
26185;PMS7003;20067;48.764;9.176;2023-03-01T01:52:49;32.50;25.50;12.50
26185;PMS7003;20067;48.764;9.176;2023-03-01T01:55:18;24.50;22.50;12.50
26185;PMS7003;20067;48.764;9.176;2023-03-01T01:57:52;35.25;26.25;14.50
26185;PMS7003;20067;48.764;9.176;2023-03-01T02:00:25;27.00;24.00;12.75
26185;PMS7003;20067;48.764;9.176;2023-03-01T02:03:03;28.75;24.50;11.50
26185;PMS7003;20067;48.764;9.176;2023-03-01T02:08:20;39.25;30.25;15.00
26185;PMS7003;20067;48.764;9.176;2023-03-01T02:10:48;27.75;25.00;12.75
26185;PMS7003;20067;48.764;9.176;2023-03-01T02:13:15;34.25;28.25;17.00
26185;PMS7003;20067;48.764;9.176;2023-03-01T02:15:40;31.50;24.50;13.50
26185;PMS7003;20067;48.764;9.176;2023-03-01T02:18:09;27.00;27.00;13.00
26185;PMS7003;20067;48.764;9.176;2023-03-01T02:23:27;29.25;25.75;13.00
26185;PMS7003;20067;48.764;9.176;2023-03-01T02:28:45;26.25;23.50;12.00
26185;PMS7003;20067;48.764;9.176;2023-03-01T02:31:14;37.00;29.50;13.50
26185;PMS7003;20067;48.764;9.176;2023-03-01T02:34:00;35.00;28.50;13.00
26185;PMS7003;20067;48.764;9.176;2023-03-01T02:36:30;25.75;24.00;13.00
26185;PMS7003;20067;48.764;9.176;2023-03-01T02:39:02;29.00;27.50;13.50
26185;PMS7003;20067;48.764;9.176;2023-03-01T02:41:31;32.25;27.50;15.50
26185;PMS7003;20067;48.764;9.176;2023-03-01T02:44:01;29.25;27.00;13.50
26185;PMS7003;20067;48.764;9.176;2023-03-01T02:46:28;24.50;23.75;12.25
26185;PMS7003;20067;48.764;9.176;2023-03-01T02:48:57;31.50;25.00;13.50
26185;PMS7003;20067;48.764;9.176;2023-03-01T02:54:10;30.75;27.25;14.25
26185;PMS7003;20067;48.764;9.176;2023-03-01T02:56:46;26.00;26.00;11.50
26185;PMS7003;20067;48.764;9.176;2023-03-01T02:59:13;35.50;27.25;14.75
26185;PMS7003;20067;48.764;9.176;2023-03-01T03:01:41;29.75;28.75;13.75
26185;PMS7003;20067;48.764;9.176;2023-03-01T03:04:08;29.25;24.25;12.00
26185;PMS7003;20067;48.764;9.176;2023-03-01T03:06:36;37.75;31.75;15.50
26185;PMS7003;20067;48.764;9.176;2023-03-01T03:09:02;32.75;28.75;13.75
26185;PMS7003;20067;48.764;9.176;2023-03-01T03:11:29;32.50;28.00;15.00
26185;PMS7003;20067;48.764;9.176;2023-03-01T03:13:55;32.75;28.00;15.25
26185;PMS7003;20067;48.764;9.176;2023-03-01T03:16:21;35.75;27.25;14.25
26185;PMS7003;20067;48.764;9.176;2023-03-01T03:18:47;38.75;30.25;15.50
26185;PMS7003;20067;48.764;9.176;2023-03-01T03:21:14;38.00;30.00;17.00
26185;PMS7003;20067;48.764;9.176;2023-03-01T03:23:41;28.75;24.00;12.50
26185;PMS7003;20067;48.764;9.176;2023-03-01T03:26:07;26.25;23.00;11.50
26185;PMS7003;20067;48.764;9.176;2023-03-01T03:28:33;34.50;27.50;13.00
26185;PMS7003;20067;48.764;9.176;2023-03-01T03:30:59;29.25;27.25;13.00
26185;PMS7003;20067;48.764;9.176;2023-03-01T03:33:31;34.50;32.50;17.00
26185;PMS7003;20067;48.764;9.176;2023-03-01T03:35:57;34.50;26.75;15.00
26185;PMS7003;20067;48.764;9.176;2023-03-01T03:38:23;35.50;26.75;13.00
26185;PMS7003;20067;48.764;9.176;2023-03-01T03:41:00;28.75;25.50;15.00
26185;PMS7003;20067;48.764;9.176;2023-03-01T03:43:28;29.00;26.00;14.00
26185;PMS7003;20067;48.764;9.176;2023-03-01T03:45:55;26.50;25.00;13.00
26185;PMS7003;20067;48.764;9.176;2023-03-01T03:48:22;28.75;27.00;15.00
26185;PMS7003;20067;48.764;9.176;2023-03-01T03:50:49;27.25;24.75;13.00
26185;PMS7003;20067;48.764;9.176;2023-03-01T03:53:17;40.00;30.25;13.00
26185;PMS7003;20067;48.764;9.176;2023-03-01T03:55:43;25.75;23.25;13.50
26185;PMS7003;20067;48.764;9.176;2023-03-01T03:58:09;30.25;27.75;15.25
26185;PMS7003;20067;48.764;9.176;2023-03-01T04:00:36;33.25;27.00;14.50
26185;PMS7003;20067;48.764;9.176;2023-03-01T04:03:03;29.50;25.00;14.00
26185;PMS7003;20067;48.764;9.176;2023-03-01T04:05:29;38.50;31.00;15.00
26185;PMS7003;20067;48.764;9.176;2023-03-01T04:07:55;40.50;27.50;16.00
26185;PMS7003;20067;48.764;9.176;2023-03-01T04:10:29;26.50;25.00;12.00
26185;PMS7003;20067;48.764;9.176;2023-03-01T04:12:57;28.50;25.50;15.00
26185;PMS7003;20067;48.764;9.176;2023-03-01T04:15:24;26.75;23.00;10.75
26185;PMS7003;20067;48.764;9.176;2023-03-01T04:17:51;35.25;30.75;17.00
26185;PMS7003;20067;48.764;9.176;2023-03-01T04:20:18;30.75;27.00;13.50
26185;PMS7003;20067;48.764;9.176;2023-03-01T04:22:50;35.00;30.00;15.00
26185;PMS7003;20067;48.764;9.176;2023-03-01T04:25:22;31.50;28.50;15.00
26185;PMS7003;20067;48.764;9.176;2023-03-01T04:27:48;23.00;21.50;11.50
26185;PMS7003;20067;48.764;9.176;2023-03-01T04:30:14;35.25;32.25;17.25
26185;PMS7003;20067;48.764;9.176;2023-03-01T04:32:40;32.75;28.25;14.50
26185;PMS7003;20067;48.764;9.176;2023-03-01T04:35:06;31.50;29.00;14.50
26185;PMS7003;20067;48.764;9.176;2023-03-01T04:37:32;40.00;30.50;15.00
26185;PMS7003;20067;48.764;9.176;2023-03-01T04:39:57;31.00;27.00;16.75
26185;PMS7003;20067;48.764;9.176;2023-03-01T04:42:23;32.50;26.50;15.00
26185;PMS7003;20067;48.764;9.176;2023-03-01T04:44:48;42.50;34.25;17.00
26185;PMS7003;20067;48.764;9.176;2023-03-01T04:47:16;27.50;26.00;14.00
26185;PMS7003;20067;48.764;9.176;2023-03-01T04:49:41;34.50;27.50;14.00
26185;PMS7003;20067;48.764;9.176;2023-03-01T04:52:07;41.00;29.25;11.50
26185;PMS7003;20067;48.764;9.176;2023-03-01T04:54:34;36.75;30.00;17.75
26185;PMS7003;20067;48.764;9.176;2023-03-01T04:57:01;35.00;30.25;14.50
26185;PMS7003;20067;48.764;9.176;2023-03-01T04:59:27;28.75;25.75;14.50
26185;PMS7003;20067;48.764;9.176;2023-03-01T05:01:54;34.75;27.50;17.00
26185;PMS7003;20067;48.764;9.176;2023-03-01T05:04:21;36.00;29.50;17.00
26185;PMS7003;20067;48.764;9.176;2023-03-01T05:06:47;39.25;30.75;19.75
26185;PMS7003;20067;48.764;9.176;2023-03-01T05:09:12;35.75;29.50;17.25
26185;PMS7003;20067;48.764;9.176;2023-03-01T05:11:38;40.00;35.75;16.00
26185;PMS7003;20067;48.764;9.176;2023-03-01T05:14:04;38.25;31.00;15.25
26185;PMS7003;20067;48.764;9.176;2023-03-01T05:16:31;29.00;24.25;11.75
26185;PMS7003;20067;48.764;9.176;2023-03-01T05:18:58;32.00;28.00;16.75
26185;PMS7003;20067;48.764;9.176;2023-03-01T05:21:26;34.75;29.50;15.25
26185;PMS7003;20067;48.764;9.176;2023-03-01T05:23:52;25.25;25.25;12.25
26185;PMS7003;20067;48.764;9.176;2023-03-01T05:26:19;35.50;30.50;15.75
26185;PMS7003;20067;48.764;9.176;2023-03-01T05:28:46;43.25;31.00;13.50
26185;PMS7003;20067;48.764;9.176;2023-03-01T05:31:12;37.75;27.00;14.50
26185;PMS7003;20067;48.764;9.176;2023-03-01T05:33:39;39.25;29.75;17.00
26185;PMS7003;20067;48.764;9.176;2023-03-01T05:36:06;32.00;29.50;15.00
26185;PMS7003;20067;48.764;9.176;2023-03-01T05:38:32;45.00;30.00;17.00
26185;PMS7003;20067;48.764;9.176;2023-03-01T05:40:59;33.00;27.75;14.00
26185;PMS7003;20067;48.764;9.176;2023-03-01T05:43:25;30.25;25.75;15.75
26185;PMS7003;20067;48.764;9.176;2023-03-01T05:45:51;41.00;32.00;15.50
26185;PMS7003;20067;48.764;9.176;2023-03-01T05:48:16;35.75;31.75;17.00
26185;PMS7003;20067;48.764;9.176;2023-03-01T05:50:44;39.75;32.75;19.00
26185;PMS7003;20067;48.764;9.176;2023-03-01T05:55:41;39.50;34.75;16.75
26185;PMS7003;20067;48.764;9.176;2023-03-01T05:58:12;27.75;25.50;13.00
26185;PMS7003;20067;48.764;9.176;2023-03-01T06:00:40;36.50;36.00;17.25
26185;PMS7003;20067;48.764;9.176;2023-03-01T06:03:06;31.25;26.25;15.75
26185;PMS7003;20067;48.764;9.176;2023-03-01T06:05:34;35.75;29.25;14.75
26185;PMS7003;20067;48.764;9.176;2023-03-01T06:08:00;40.25;32.50;17.75
26185;PMS7003;20067;48.764;9.176;2023-03-01T06:10:26;34.00;32.75;17.25
26185;PMS7003;20067;48.764;9.176;2023-03-01T06:12:52;38.75;33.75;19.50
26185;PMS7003;20067;48.764;9.176;2023-03-01T06:15:18;29.25;26.50;16.00
26185;PMS7003;20067;48.764;9.176;2023-03-01T06:17:45;36.00;31.25;15.00
26185;PMS7003;20067;48.764;9.176;2023-03-01T06:20:13;34.00;27.50;17.00
26185;PMS7003;20067;48.764;9.176;2023-03-01T06:22:49;41.25;30.75;19.00
26185;PMS7003;20067;48.764;9.176;2023-03-01T06:25:16;42.00;35.50;17.00
26185;PMS7003;20067;48.764;9.176;2023-03-01T06:27:45;38.25;31.00;17.00
26185;PMS7003;20067;48.764;9.176;2023-03-01T06:30:12;44.50;30.25;16.00
26185;PMS7003;20067;48.764;9.176;2023-03-01T06:32:42;34.00;31.00;17.00
26185;PMS7003;20067;48.764;9.176;2023-03-01T06:35:12;35.25;30.75;15.50
26185;PMS7003;20067;48.764;9.176;2023-03-01T06:37:40;36.50;30.50;16.00
26185;PMS7003;20067;48.764;9.176;2023-03-01T06:40:06;28.50;26.00;15.50
26185;PMS7003;20067;48.764;9.176;2023-03-01T06:42:35;36.75;27.00;17.00
26185;PMS7003;20067;48.764;9.176;2023-03-01T06:45:02;30.75;25.00;14.50
26185;PMS7003;20067;48.764;9.176;2023-03-01T06:47:28;28.50;25.50;13.00
26185;PMS7003;20067;48.764;9.176;2023-03-01T06:49:54;37.50;33.50;18.00
26185;PMS7003;20067;48.764;9.176;2023-03-01T06:52:19;41.75;35.00;17.00
26185;PMS7003;20067;48.764;9.176;2023-03-01T06:54:45;34.25;30.75;14.00
26185;PMS7003;20067;48.764;9.176;2023-03-01T06:57:10;33.50;26.75;15.00
26185;PMS7003;20067;48.764;9.176;2023-03-01T06:59:36;43.50;35.00;18.50
26185;PMS7003;20067;48.764;9.176;2023-03-01T07:02:01;35.75;28.25;16.00
26185;PMS7003;20067;48.764;9.176;2023-03-01T07:04:27;33.25;29.50;17.00
26185;PMS7003;20067;48.764;9.176;2023-03-01T07:06:56;37.50;30.50;17.00
26185;PMS7003;20067;48.764;9.176;2023-03-01T07:09:24;37.00;31.50;18.25
26185;PMS7003;20067;48.764;9.176;2023-03-01T07:11:50;31.75;27.75;13.75
26185;PMS7003;20067;48.764;9.176;2023-03-01T07:14:15;35.00;30.50;16.50
26185;PMS7003;20067;48.764;9.176;2023-03-01T07:16:41;34.00;29.00;14.25
26185;PMS7003;20067;48.764;9.176;2023-03-01T07:19:07;29.00;27.00;16.25
26185;PMS7003;20067;48.764;9.176;2023-03-01T07:21:32;34.00;32.00;18.00
26185;PMS7003;20067;48.764;9.176;2023-03-01T07:23:58;36.25;31.25;15.75
26185;PMS7003;20067;48.764;9.176;2023-03-01T07:26:23;42.25;37.75;20.75
26185;PMS7003;20067;48.764;9.176;2023-03-01T07:28:49;31.25;28.75;15.50
26185;PMS7003;20067;48.764;9.176;2023-03-01T07:31:15;39.50;31.50;17.00
26185;PMS7003;20067;48.764;9.176;2023-03-01T07:33:40;33.75;30.75;17.75
26185;PMS7003;20067;48.764;9.176;2023-03-01T07:36:06;41.00;33.00;17.75
26185;PMS7003;20067;48.764;9.176;2023-03-01T07:38:32;36.50;31.00;17.25
26185;PMS7003;20067;48.764;9.176;2023-03-01T07:40:59;44.00;40.25;18.75
26185;PMS7003;20067;48.764;9.176;2023-03-01T07:43:26;37.25;30.75;18.00
26185;PMS7003;20067;48.764;9.176;2023-03-01T07:45:53;43.25;37.25;18.00
26185;PMS7003;20067;48.764;9.176;2023-03-01T07:48:18;34.25;30.25;18.25
26185;PMS7003;20067;48.764;9.176;2023-03-01T07:50:44;36.50;30.25;16.00
26185;PMS7003;20067;48.764;9.176;2023-03-01T07:53:09;43.00;33.25;21.00
26185;PMS7003;20067;48.764;9.176;2023-03-01T07:55:35;34.00;32.50;15.50
26185;PMS7003;20067;48.764;9.176;2023-03-01T07:58:01;41.75;35.25;17.00
26185;PMS7003;20067;48.764;9.176;2023-03-01T08:00:27;38.75;33.00;18.00
26185;PMS7003;20067;48.764;9.176;2023-03-01T08:02:53;39.75;33.50;16.00
26185;PMS7003;20067;48.764;9.176;2023-03-01T08:05:18;38.00;35.50;19.50
26185;PMS7003;20067;48.764;9.176;2023-03-01T08:07:44;41.50;34.00;19.00
26185;PMS7003;20067;48.764;9.176;2023-03-01T08:10:10;36.25;31.00;17.50
26185;PMS7003;20067;48.764;9.176;2023-03-01T08:12:36;33.75;32.75;18.50
26185;PMS7003;20067;48.764;9.176;2023-03-01T08:15:01;43.25;31.25;17.00
26185;PMS7003;20067;48.764;9.176;2023-03-01T08:17:27;35.25;34.25;17.00
26185;PMS7003;20067;48.764;9.176;2023-03-01T08:19:53;47.00;32.25;17.00
26185;PMS7003;20067;48.764;9.176;2023-03-01T08:22:18;36.50;29.00;16.50
26185;PMS7003;20067;48.764;9.176;2023-03-01T08:24:44;34.75;29.50;17.00
26185;PMS7003;20067;48.764;9.176;2023-03-01T08:27:09;41.25;35.00;17.00
26185;PMS7003;20067;48.764;9.176;2023-03-01T08:29:37;45.75;34.00;17.00
26185;PMS7003;20067;48.764;9.176;2023-03-01T08:32:02;36.50;26.25;15.25
26185;PMS7003;20067;48.764;9.176;2023-03-01T08:34:28;41.75;35.00;20.00
26185;PMS7003;20067;48.764;9.176;2023-03-01T08:36:56;43.75;39.75;17.50
26185;PMS7003;20067;48.764;9.176;2023-03-01T08:39:21;34.25;32.25;19.75
26185;PMS7003;20067;48.764;9.176;2023-03-01T08:41:47;41.75;34.00;19.00
26185;PMS7003;20067;48.764;9.176;2023-03-01T08:44:13;37.00;35.00;19.75
26185;PMS7003;20067;48.764;9.176;2023-03-01T08:46:41;36.75;33.50;19.00
26185;PMS7003;20067;48.764;9.176;2023-03-01T08:49:09;40.00;31.00;18.25
26185;PMS7003;20067;48.764;9.176;2023-03-01T08:51:39;39.00;37.00;20.75
26185;PMS7003;20067;48.764;9.176;2023-03-01T08:54:06;39.50;30.50;20.75
26185;PMS7003;20067;48.764;9.176;2023-03-01T08:56:36;39.00;33.50;18.00
26185;PMS7003;20067;48.764;9.176;2023-03-01T08:59:02;41.75;36.75;19.75
26185;PMS7003;20067;48.764;9.176;2023-03-01T09:01:29;35.75;31.00;18.25
26185;PMS7003;20067;48.764;9.176;2023-03-01T09:03:54;38.00;34.00;18.75
26185;PMS7003;20067;48.764;9.176;2023-03-01T09:06:20;43.00;36.25;19.50
26185;PMS7003;20067;48.764;9.176;2023-03-01T09:08:47;40.25;35.00;22.00
26185;PMS7003;20067;48.764;9.176;2023-03-01T09:11:15;38.00;31.50;19.00
26185;PMS7003;20067;48.764;9.176;2023-03-01T09:13:42;41.50;36.50;22.00
26185;PMS7003;20067;48.764;9.176;2023-03-01T09:16:10;39.50;35.00;21.25
26185;PMS7003;20067;48.764;9.176;2023-03-01T09:18:37;48.75;42.00;22.75
26185;PMS7003;20067;48.764;9.176;2023-03-01T09:21:06;47.00;36.50;22.25
26185;PMS7003;20067;48.764;9.176;2023-03-01T09:23:34;44.00;38.00;20.00
26185;PMS7003;20067;48.764;9.176;2023-03-01T09:26:08;38.00;35.25;23.00
26185;PMS7003;20067;48.764;9.176;2023-03-01T09:28:36;41.50;39.00;23.00
26185;PMS7003;20067;48.764;9.176;2023-03-01T09:31:02;38.25;34.75;23.00
26185;PMS7003;20067;48.764;9.176;2023-03-01T09:33:30;40.75;35.00;19.75
26185;PMS7003;20067;48.764;9.176;2023-03-01T09:36:03;43.00;36.00;22.00
26185;PMS7003;20067;48.764;9.176;2023-03-01T09:38:30;48.50;38.00;21.75
26185;PMS7003;20067;48.764;9.176;2023-03-01T09:40:56;51.25;37.50;22.50
26185;PMS7003;20067;48.764;9.176;2023-03-01T09:46:12;40.50;34.50;19.00
26185;PMS7003;20067;48.764;9.176;2023-03-01T09:48:43;56.50;44.25;23.75
26185;PMS7003;20067;48.764;9.176;2023-03-01T09:51:32;47.75;40.25;22.00
26185;PMS7003;20067;48.764;9.176;2023-03-01T09:54:03;37.25;34.00;19.25
26185;PMS7003;20067;48.764;9.176;2023-03-01T09:56:34;38.50;32.50;19.25
26185;PMS7003;20067;48.764;9.176;2023-03-01T10:09:36;37.25;33.25;18.25
26185;PMS7003;20067;48.764;9.176;2023-03-01T10:12:04;38.50;36.50;20.00
26185;PMS7003;20067;48.764;9.176;2023-03-01T10:14:57;37.75;35.75;20.75
26185;PMS7003;20067;48.764;9.176;2023-03-01T10:17:34;36.25;32.75;17.00
26185;PMS7003;20067;48.764;9.176;2023-03-01T10:20:23;34.75;29.50;19.00
26185;PMS7003;20067;48.764;9.176;2023-03-01T10:23:01;33.50;32.00;17.25
26185;PMS7003;20067;48.764;9.176;2023-03-01T10:25:32;41.00;32.00;19.00
26185;PMS7003;20067;48.764;9.176;2023-03-01T10:28:36;40.75;35.00;17.75
26185;PMS7003;20067;48.764;9.176;2023-03-01T10:31:22;32.75;28.25;17.00
26185;PMS7003;20067;48.764;9.176;2023-03-01T10:34:02;34.00;32.50;18.50
26185;PMS7003;20067;48.764;9.176;2023-03-01T10:36:29;33.75;31.00;18.75
26185;PMS7003;20067;48.764;9.176;2023-03-01T10:38:58;39.75;35.00;20.00
26185;PMS7003;20067;48.764;9.176;2023-03-01T10:41:25;40.50;34.75;20.00
26185;PMS7003;20067;48.764;9.176;2023-03-01T10:43:58;36.00;29.50;18.75
26185;PMS7003;20067;48.764;9.176;2023-03-01T10:46:29;39.25;36.00;21.75
26185;PMS7003;20067;48.764;9.176;2023-03-01T10:49:06;37.00;34.00;20.00
26185;PMS7003;20067;48.764;9.176;2023-03-01T10:51:47;40.50;32.25;19.00
26185;PMS7003;20067;48.764;9.176;2023-03-01T10:56:58;40.50;37.25;22.50
26185;PMS7003;20067;48.764;9.176;2023-03-01T11:03:01;37.75;35.75;21.00
26185;PMS7003;20067;48.764;9.176;2023-03-01T11:04:56;34.00;33.25;18.75
26185;PMS7003;20067;48.764;9.176;2023-03-01T11:07:27;38.25;34.00;19.00
26185;PMS7003;20067;48.764;9.176;2023-03-01T11:09:53;33.25;29.50;16.00
26185;PMS7003;20067;48.764;9.176;2023-03-01T11:12:20;48.25;38.25;21.00
26185;PMS7003;20067;48.764;9.176;2023-03-01T11:14:53;36.50;31.25;19.25
26185;PMS7003;20067;48.764;9.176;2023-03-01T11:17:24;36.75;31.00;18.25
26185;PMS7003;20067;48.764;9.176;2023-03-01T11:22:25;38.50;32.00;19.00
26185;PMS7003;20067;48.764;9.176;2023-03-01T11:24:53;37.00;32.75;19.50
26185;PMS7003;20067;48.764;9.176;2023-03-01T11:27:21;35.25;32.75;18.75
26185;PMS7003;20067;48.764;9.176;2023-03-01T11:30:03;39.50;30.00;19.50
26185;PMS7003;20067;48.764;9.176;2023-03-01T11:32:47;39.25;34.75;18.00
26185;PMS7003;20067;48.764;9.176;2023-03-01T11:35:23;30.25;28.00;18.00
26185;PMS7003;20067;48.764;9.176;2023-03-01T11:40:44;38.00;32.25;18.75
26185;PMS7003;20067;48.764;9.176;2023-03-01T11:51:41;37.00;33.00;17.25
26185;PMS7003;20067;48.764;9.176;2023-03-01T12:05:34;31.25;30.25;18.00
26185;PMS7003;20067;48.764;9.176;2023-03-01T12:10:34;40.00;31.75;17.50
26185;PMS7003;20067;48.764;9.176;2023-03-01T12:15:49;40.00;31.25;18.00
26185;PMS7003;20067;48.764;9.176;2023-03-01T12:18:38;35.00;32.25;18.50
26185;PMS7003;20067;48.764;9.176;2023-03-01T12:46:31;29.50;27.75;13.50
26185;PMS7003;20067;48.764;9.176;2023-03-01T12:49:31;32.00;27.25;16.75
26185;PMS7003;20067;48.764;9.176;2023-03-01T12:54:45;36.25;29.75;15.50
26185;PMS7003;20067;48.764;9.176;2023-03-01T12:57:15;30.00;27.25;16.00
26185;PMS7003;20067;48.764;9.176;2023-03-01T13:00:00;35.25;31.50;16.00
26185;PMS7003;20067;48.764;9.176;2023-03-01T13:02:58;37.00;29.00;16.25
26185;PMS7003;20067;48.764;9.176;2023-03-01T13:05:51;32.75;26.25;14.75
26185;PMS7003;20067;48.764;9.176;2023-03-01T13:08:36;40.00;30.50;18.00
26185;PMS7003;20067;48.764;9.176;2023-03-01T13:11:18;26.25;25.00;14.00
26185;PMS7003;20067;48.764;9.176;2023-03-01T13:13:46;31.75;27.50;14.00
26185;PMS7003;20067;48.764;9.176;2023-03-01T13:19:08;31.00;29.75;16.25
26185;PMS7003;20067;48.764;9.176;2023-03-01T13:21:35;27.50;24.00;13.75
26185;PMS7003;20067;48.764;9.176;2023-03-01T13:24:01;31.25;28.25;18.75
26185;PMS7003;20067;48.764;9.176;2023-03-01T13:26:26;26.00;25.00;13.50
26185;PMS7003;20067;48.764;9.176;2023-03-01T13:28:53;34.75;27.50;14.00
26185;PMS7003;20067;48.764;9.176;2023-03-01T13:33:53;35.50;31.50;16.75
26185;PMS7003;20067;48.764;9.176;2023-03-01T13:44:50;35.75;29.00;17.75
26185;PMS7003;20067;48.764;9.176;2023-03-01T13:52:06;37.25;30.25;16.75
26185;PMS7003;20067;48.764;9.176;2023-03-01T13:54:58;35.25;32.25;16.00
26185;PMS7003;20067;48.764;9.176;2023-03-01T13:57:28;36.00;33.25;16.50
26185;PMS7003;20067;48.764;9.176;2023-03-01T13:59:59;39.50;31.75;16.00
26185;PMS7003;20067;48.764;9.176;2023-03-01T14:02:25;38.00;29.50;17.75
26185;PMS7003;20067;48.764;9.176;2023-03-01T14:04:57;42.25;32.25;18.00
26185;PMS7003;20067;48.764;9.176;2023-03-01T14:07:24;38.00;31.00;16.50
26185;PMS7003;20067;48.764;9.176;2023-03-01T14:09:55;35.50;29.50;17.00
26185;PMS7003;20067;48.764;9.176;2023-03-01T14:17:59;33.50;29.00;16.00
26185;PMS7003;20067;48.764;9.176;2023-03-01T14:20:43;36.75;33.75;16.75
26185;PMS7003;20067;48.764;9.176;2023-03-01T14:23:17;36.50;30.50;17.75
26185;PMS7003;20067;48.764;9.176;2023-03-01T14:25:52;39.00;32.25;18.00
26185;PMS7003;20067;48.764;9.176;2023-03-01T14:30:52;35.75;28.75;18.00
26185;PMS7003;20067;48.764;9.176;2023-03-01T14:33:20;40.50;35.75;19.00
26185;PMS7003;20067;48.764;9.176;2023-03-01T14:35:52;42.25;32.75;18.00
26185;PMS7003;20067;48.764;9.176;2023-03-01T14:38:21;35.00;31.00;16.00
26185;PMS7003;20067;48.764;9.176;2023-03-01T14:40:49;34.25;32.25;17.75
26185;PMS7003;20067;48.764;9.176;2023-03-01T14:43:21;34.75;29.25;17.50
26185;PMS7003;20067;48.764;9.176;2023-03-01T14:45:49;37.50;33.75;17.00
26185;PMS7003;20067;48.764;9.176;2023-03-01T14:48:15;38.50;36.25;21.00
26185;PMS7003;20067;48.764;9.176;2023-03-01T14:50:42;32.00;27.75;17.00
26185;PMS7003;20067;48.764;9.176;2023-03-01T14:53:19;43.00;35.25;18.75
26185;PMS7003;20067;48.764;9.176;2023-03-01T14:55:49;40.00;32.75;19.50
26185;PMS7003;20067;48.764;9.176;2023-03-01T14:58:22;43.75;31.00;19.50
26185;PMS7003;20067;48.764;9.176;2023-03-01T15:00:56;40.00;35.25;18.00
26185;PMS7003;20067;48.764;9.176;2023-03-01T15:06:00;49.25;35.00;21.00
26185;PMS7003;20067;48.764;9.176;2023-03-01T15:08:27;42.50;32.75;19.25
26185;PMS7003;20067;48.764;9.176;2023-03-01T15:13:43;39.00;30.00;15.75
26185;PMS7003;20067;48.764;9.176;2023-03-01T15:16:15;36.00;29.50;16.50
26185;PMS7003;20067;48.764;9.176;2023-03-01T15:18:48;31.00;26.75;14.00
26185;PMS7003;20067;48.764;9.176;2023-03-01T15:21:26;42.50;34.75;19.00
26185;PMS7003;20067;48.764;9.176;2023-03-01T15:23:57;34.00;29.00;16.00
26185;PMS7003;20067;48.764;9.176;2023-03-01T15:27:00;41.75;37.00;19.50
26185;PMS7003;20067;48.764;9.176;2023-03-01T15:29:32;41.25;36.25;21.50
26185;PMS7003;20067;48.764;9.176;2023-03-01T15:32:06;40.75;35.50;22.25
26185;PMS7003;20067;48.764;9.176;2023-03-01T15:34:50;43.00;34.50;19.25
26185;PMS7003;20067;48.764;9.176;2023-03-01T15:40:17;34.50;28.25;17.50
26185;PMS7003;20067;48.764;9.176;2023-03-01T15:42:50;44.00;36.00;19.50
26185;PMS7003;20067;48.764;9.176;2023-03-01T15:47:58;39.50;34.50;19.00
26185;PMS7003;20067;48.764;9.176;2023-03-01T15:50:31;32.00;30.00;17.50
26185;PMS7003;20067;48.764;9.176;2023-03-01T15:52:59;42.25;37.50;19.75
26185;PMS7003;20067;48.764;9.176;2023-03-01T15:55:27;35.25;29.75;15.25
26185;PMS7003;20067;48.764;9.176;2023-03-01T15:58:13;33.00;27.00;15.75
26185;PMS7003;20067;48.764;9.176;2023-03-01T16:00:39;44.00;37.25;22.00
26185;PMS7003;20067;48.764;9.176;2023-03-01T16:03:05;37.25;32.00;18.00
26185;PMS7003;20067;48.764;9.176;2023-03-01T16:05:34;32.75;28.75;16.75
26185;PMS7003;20067;48.764;9.176;2023-03-01T16:08:01;35.75;32.75;17.00
26185;PMS7003;20067;48.764;9.176;2023-03-01T16:10:27;33.50;29.75;17.25